Portada
METAR-TAF:

METAR-TAF

Aeroports :

Nosy Be, Madagascar

latitud: 13-19S, longitud: 048-19E, altitud: 10 m

Observació

L'informe es va fer fa 31 minuts, a les 07:00 UTC
Vent 4 kt del Nord-Est
Temperatura 30°C
Pressió 1013 hPa
Visibilitat 10 km o més
Escasses núvols a una alçada de 2000 ft

METAR: FMNN 260700Z 04004KT 9999 FEW020 30/// Q1013

Hora: 10:31 (07:31 UTC)

Pronòstic

L'informe es va fer fa 2 hores i 31 minuts, a les 05:00 UTC
Pronòstic vàlid del 26 a les 06 UTC al 27 a les 06 UTC
Vent 6 kt del Est/Nord-Est
Visibilitat 10 km o més
Escasses núvols a una alçada de 2000 ft
Núvols disperses a una alçada de 4000 ft
Evolucionant progressivament
l' 26 a les 10 UTC al 26 a les 12 UTC
Vent 10 kt del Oest
Evolucionant progressivament
l' 26 a les 20 UTC al 26 a les 22 UTC
Vent 4 kt del Nord-Est

TAF: FMNN 260500Z 2606/2706 06006KT 9999 FEW020 SCT040 BECMG 2610/2612 26010KT BECMG 2620/2622 04004KT

Observacions i pronòstics meteorològics de més de 4000 aeroports (METAR i TAF).

Les estacions disponibles són els punts grocs i vermells al mapa.

Posi el ratolí al punt desitjat per veure el nom de l'estació.

Feu clic per veure les observacions i els pronòstics meteorològics.

Per canviar el mapa: feu clic els botons verds amb una creu de color negre per apropar; al botó verd amb un guió per allunyar la imatge; o en les fletxes verdes per a mapes adjacents.


METAR-TAF: